createdAt,value
2023-02-17T00:00:03.948Z,49.15
2023-02-17T00:01:03.973Z,46.41
2023-02-17T00:02:03.951Z,46.08
2023-02-17T00:03:03.927Z,44.31
2023-02-17T00:04:03.918Z,49.15
2023-02-17T00:05:03.921Z,52.21
2023-02-17T00:06:04.068Z,52.05
2023-02-17T00:07:03.884Z,49.47
2023-02-17T00:08:03.880Z,46.25
2023-02-17T00:09:03.856Z,43.34
2023-02-17T00:10:03.851Z,43.51
2023-02-17T00:11:03.872Z,44.31
2023-02-17T00:12:03.814Z,43.51
2023-02-17T00:13:03.808Z,43.51
2023-02-17T00:14:03.831Z,43.83
2023-02-17T00:15:03.781Z,47.21
2023-02-17T00:16:04.321Z,49.47
2023-02-17T00:17:03.787Z,45.92
2023-02-17T00:18:03.760Z,47.70
2023-02-17T00:19:03.765Z,49.31
2023-02-17T00:20:03.772Z,48.50
2023-02-17T00:21:03.732Z,47.86
2023-02-17T00:22:03.718Z,48.98
2023-02-17T00:23:03.703Z,46.73
2023-02-17T00:24:03.688Z,45.44
2023-02-17T00:25:03.677Z,47.86
2023-02-17T00:26:03.900Z,46.08
2023-02-17T00:27:03.665Z,49.47
2023-02-17T00:28:03.653Z,47.05
2023-02-17T00:29:03.662Z,46.57
2023-02-17T00:30:03.659Z,47.21
2023-02-17T00:31:03.714Z,49.31
2023-02-17T00:32:03.781Z,47.86
2023-02-17T00:33:03.605Z,46.89
2023-02-17T00:34:03.587Z,52.05
2023-02-17T00:35:03.618Z,52.69
2023-02-17T00:36:03.875Z,46.89
2023-02-17T00:37:04.586Z,46.73
2023-02-17T00:38:03.584Z,48.82
2023-02-17T00:39:03.564Z,48.02
2023-02-17T00:40:03.543Z,49.95
2023-02-17T00:41:03.537Z,52.21
2023-02-17T00:42:03.515Z,46.89
2023-02-17T00:43:03.511Z,48.34
2023-02-17T00:44:03.541Z,47.05
2023-02-17T00:45:03.478Z,46.73
2023-02-17T00:46:03.778Z,47.86
2023-02-17T00:47:03.479Z,49.95
2023-02-17T00:48:03.465Z,47.21
2023-02-17T00:49:03.454Z,47.21
2023-02-17T00:50:03.446Z,46.41
2023-02-17T00:51:03.408Z,48.82
2023-02-17T00:52:03.427Z,48.34
2023-02-17T00:53:03.404Z,47.37
2023-02-17T00:54:03.377Z,49.95
2023-02-17T00:55:03.373Z,46.89
2023-02-17T00:56:03.808Z,50.92
2023-02-17T00:57:03.381Z,49.63
2023-02-17T00:58:03.338Z,48.98
2023-02-17T00:59:03.346Z,48.34
2023-02-17T01:00:03.340Z,47.53
2023-02-17T01:01:03.307Z,46.08
2023-02-17T01:02:04.312Z,45.28
2023-02-17T01:03:03.293Z,47.21
2023-02-17T01:04:03.283Z,46.89
2023-02-17T01:05:03.427Z,48.50
2023-02-17T01:06:03.543Z,44.63
2023-02-17T01:07:03.276Z,45.12
2023-02-17T01:08:03.234Z,47.37
2023-02-17T01:09:03.240Z,46.57
2023-02-17T01:10:03.238Z,49.15
2023-02-17T01:11:03.215Z,48.66
2023-02-17T01:12:03.206Z,48.34
2023-02-17T01:13:03.192Z,46.08
2023-02-17T01:14:03.186Z,45.76
2023-02-17T01:15:03.230Z,46.08
2023-02-17T01:16:03.440Z,48.98
2023-02-17T01:17:03.154Z,45.76
2023-02-17T01:18:03.165Z,42.70
2023-02-17T01:19:03.130Z,45.60
2023-02-17T01:20:03.135Z,48.02
2023-02-17T01:21:03.163Z,45.60
2023-02-17T01:22:03.116Z,44.79
2023-02-17T01:23:03.109Z,48.50
2023-02-17T01:24:03.068Z,46.08
2023-02-17T01:25:03.090Z,45.44
2023-02-17T01:26:03.249Z,47.53
2023-02-17T01:27:03.036Z,46.25
2023-02-17T01:28:03.073Z,43.67
2023-02-17T01:29:03.042Z,46.25
2023-02-17T01:30:03.059Z,46.57
2023-02-17T01:31:03.130Z,44.31
2023-02-17T01:32:03.030Z,44.79
2023-02-17T01:33:02.993Z,48.02
2023-02-17T01:34:02.995Z,48.98
2023-02-17T01:35:02.984Z,47.53
2023-02-17T01:36:03.052Z,48.18
2023-02-17T01:37:02.973Z,49.31
2023-02-17T01:38:02.933Z,45.60
2023-02-17T01:39:02.915Z,43.67
2023-02-17T01:40:02.993Z,46.73
2023-02-17T01:41:02.910Z,49.95
2023-02-17T01:42:02.889Z,51.88
2023-02-17T01:43:02.916Z,47.05
2023-02-17T01:44:02.873Z,49.47
2023-02-17T01:45:02.847Z,46.08
2023-02-17T01:46:03.026Z,46.73
2023-02-17T01:47:02.852Z,44.96
2023-02-17T01:48:02.815Z,45.44
2023-02-17T01:49:02.838Z,50.11
2023-02-17T01:50:02.817Z,47.70
2023-02-17T01:51:02.802Z,45.60
2023-02-17T01:52:02.812Z,44.31
2023-02-17T01:53:02.774Z,46.73
2023-02-17T01:54:02.771Z,49.47
2023-02-17T01:55:02.797Z,46.73
2023-02-17T01:56:02.904Z,48.02
2023-02-17T01:57:02.732Z,49.63
2023-02-17T01:58:02.728Z,48.02
2023-02-17T01:59:02.716Z,49.47
2023-02-17T02:00:02.709Z,46.73
2023-02-17T02:01:02.740Z,47.05
2023-02-17T02:02:02.867Z,46.73
2023-02-17T02:03:35.189Z,46.73
2023-02-17T02:04:02.669Z,45.12
2023-02-17T02:05:02.637Z,45.28
2023-02-17T02:06:02.952Z,45.60
2023-02-17T02:07:02.644Z,48.50
2023-02-17T02:08:02.581Z,47.70
2023-02-17T02:09:03.628Z,47.21
2023-02-17T02:10:02.607Z,48.98
2023-02-17T02:11:02.598Z,45.60
2023-02-17T02:12:02.584Z,47.86
2023-02-17T02:13:02.577Z,48.98
2023-02-17T02:14:02.567Z,46.41
2023-02-17T02:15:02.529Z,48.66
2023-02-17T02:16:02.554Z,45.76
2023-02-17T02:17:02.513Z,46.41
2023-02-17T02:18:02.526Z,52.21
2023-02-17T02:19:02.532Z,44.47
2023-02-17T02:20:02.511Z,43.67
2023-02-17T02:21:02.477Z,42.86
2023-02-17T02:22:02.463Z,45.44
2023-02-17T02:23:02.493Z,44.96
2023-02-17T02:24:02.444Z,44.47
2023-02-17T02:25:02.459Z,46.41
2023-02-17T02:26:02.427Z,47.05
2023-02-17T02:27:02.400Z,48.02
2023-02-17T02:28:02.417Z,47.05
2023-02-17T02:29:02.419Z,49.63
2023-02-17T02:30:02.468Z,46.25
2023-02-17T02:31:02.382Z,49.31
2023-02-17T02:32:02.426Z,43.67
2023-02-17T02:33:02.349Z,44.96
2023-02-17T02:34:02.337Z,47.05
2023-02-17T02:35:02.342Z,46.25
2023-02-17T02:36:02.332Z,48.98
2023-02-17T02:37:02.325Z,45.60
2023-02-17T02:38:02.342Z,43.99
2023-02-17T02:39:02.317Z,46.08
2023-02-17T02:40:02.290Z,48.34
2023-02-17T02:41:02.252Z,45.92
2023-02-17T02:42:02.271Z,46.41
2023-02-17T02:43:02.279Z,52.05
2023-02-17T02:44:02.282Z,46.41
2023-02-17T02:45:02.222Z,45.92
2023-02-17T02:46:02.287Z,43.99
2023-02-17T02:47:02.223Z,45.28
2023-02-17T02:48:02.194Z,43.67
2023-02-17T02:49:03.208Z,47.21
2023-02-17T02:50:02.180Z,49.15
2023-02-17T02:51:02.159Z,47.53
2023-02-17T02:52:02.152Z,46.73
2023-02-17T02:53:02.153Z,47.21
2023-02-17T02:54:02.146Z,49.15
2023-02-17T02:55:02.115Z,51.08
2023-02-17T02:56:02.114Z,47.86
2023-02-17T02:57:03.113Z,52.05
2023-02-17T02:58:02.097Z,48.66
2023-02-17T02:59:02.125Z,45.44
2023-02-17T03:00:02.083Z,45.28
2023-02-17T03:01:02.739Z,44.96
2023-02-17T03:02:03.061Z,46.73
2023-02-17T03:03:02.072Z,46.89
2023-02-17T03:04:02.137Z,46.57
2023-02-17T03:05:02.030Z,46.25
2023-02-17T03:06:02.000Z,45.28
2023-02-17T03:07:01.986Z,45.76
2023-02-17T03:08:01.989Z,46.08
2023-02-17T03:09:01.986Z,46.73
2023-02-17T03:10:01.970Z,50.27
2023-02-17T03:11:01.931Z,48.50
2023-02-17T03:12:01.959Z,49.15
2023-02-17T03:13:01.960Z,48.98
2023-02-17T03:14:01.961Z,49.79
2023-02-17T03:15:01.896Z,48.18
2023-02-17T03:16:01.954Z,48.02
2023-02-17T03:17:01.903Z,45.28
2023-02-17T03:18:01.904Z,44.96
2023-02-17T03:19:01.868Z,48.02
2023-02-17T03:20:01.874Z,45.12
2023-02-17T03:21:01.828Z,50.43
2023-02-17T03:22:01.862Z,50.43
2023-02-17T03:23:01.842Z,46.57
2023-02-17T03:24:01.813Z,49.95
2023-02-17T03:25:01.785Z,50.11
2023-02-17T03:26:01.782Z,52.69
2023-02-17T03:27:01.795Z,49.15
2023-02-17T03:28:01.770Z,46.89
2023-02-17T03:29:01.784Z,46.89
2023-02-17T03:30:01.806Z,50.60
2023-02-17T03:31:01.789Z,49.15
2023-02-17T03:32:01.734Z,47.86
2023-02-17T03:33:01.736Z,45.28
2023-02-17T03:34:01.714Z,51.24
2023-02-17T03:35:01.676Z,50.60
2023-02-17T03:36:01.715Z,52.21
2023-02-17T03:37:01.664Z,50.76
2023-02-17T03:38:01.662Z,52.69
2023-02-17T03:39:01.685Z,50.43
2023-02-17T03:40:01.653Z,53.17
2023-02-17T03:41:01.617Z,49.79
2023-02-17T03:42:01.623Z,51.08
2023-02-17T03:43:01.654Z,49.95
2023-02-17T03:44:01.605Z,48.98
2023-02-17T03:45:01.582Z,48.98
2023-02-17T03:46:01.637Z,51.24
2023-02-17T03:47:01.590Z,52.53
2023-02-17T03:48:01.572Z,50.27
2023-02-17T03:49:01.534Z,48.98
2023-02-17T03:50:01.535Z,50.76
2023-02-17T03:51:01.549Z,52.69
2023-02-17T03:52:01.590Z,52.53
2023-02-17T03:53:01.539Z,47.37
2023-02-17T03:54:01.514Z,50.92
2023-02-17T03:55:01.469Z,51.08
2023-02-17T03:56:01.472Z,50.60
2023-02-17T03:57:01.479Z,48.18
2023-02-17T03:58:01.457Z,49.95
2023-02-17T03:59:01.456Z,53.82
2023-02-17T04:00:01.457Z,53.33
2023-02-17T04:01:01.522Z,50.76
2023-02-17T04:02:01.418Z,50.43
2023-02-17T04:03:01.422Z,51.40
2023-02-17T04:04:01.434Z,50.76
2023-02-17T04:05:01.362Z,51.40
2023-02-17T04:06:01.390Z,51.56
2023-02-17T04:07:01.376Z,51.72
2023-02-17T04:08:01.347Z,52.53
2023-02-17T04:09:01.366Z,48.82
2023-02-17T04:10:02.711Z,49.15
2023-02-17T04:11:01.311Z,54.30
2023-02-17T04:12:01.312Z,53.98
2023-02-17T04:13:01.306Z,53.66
2023-02-17T04:14:01.292Z,55.59
2023-02-17T04:15:01.373Z,51.40
2023-02-17T04:16:01.335Z,52.21
2023-02-17T04:17:01.272Z,56.24
2023-02-17T04:18:01.242Z,55.75
2023-02-17T04:19:01.213Z,54.30
2023-02-17T04:20:01.211Z,53.33
2023-02-17T04:21:01.237Z,51.56
2023-02-17T04:22:01.194Z,53.66
2023-02-17T04:23:01.168Z,52.69
2023-02-17T04:24:01.186Z,51.08
2023-02-17T04:25:01.155Z,50.92
2023-02-17T04:26:01.163Z,54.14
2023-02-17T04:27:01.163Z,56.72
2023-02-17T04:28:01.136Z,55.11
2023-02-17T04:29:01.101Z,56.72
2023-02-17T04:30:01.138Z,55.27
2023-02-17T04:31:01.247Z,54.62
2023-02-17T04:32:01.249Z,55.11
2023-02-17T04:33:01.101Z,56.40
2023-02-17T04:34:01.065Z,56.24
2023-02-17T04:35:01.047Z,55.59
2023-02-17T04:36:01.063Z,55.59
2023-02-17T04:37:01.048Z,55.11
2023-02-17T04:38:01.030Z,57.52
2023-02-17T04:39:01.016Z,57.36
2023-02-17T04:40:01.027Z,54.46
2023-02-17T04:41:00.993Z,57.20
2023-02-17T04:42:00.997Z,56.56
2023-02-17T04:43:00.990Z,55.75
2023-02-17T04:44:00.970Z,58.17
2023-02-17T04:45:00.942Z,55.11
2023-02-17T04:46:00.993Z,58.01
2023-02-17T04:47:00.972Z,57.20
2023-02-17T04:48:00.924Z,56.72
2023-02-17T04:49:00.899Z,57.04
2023-02-17T04:50:00.895Z,57.04
2023-02-17T04:51:00.926Z,57.69
2023-02-17T04:52:00.877Z,58.17
2023-02-17T04:53:01.855Z,58.97
2023-02-17T04:54:00.852Z,58.17
2023-02-17T04:55:03.799Z,58.17
2023-02-17T04:56:00.825Z,56.56
2023-02-17T04:57:00.866Z,56.72
2023-02-17T04:58:00.850Z,57.52
2023-02-17T04:59:00.787Z,56.56
2023-02-17T05:00:00.806Z,57.20
2023-02-17T05:01:00.807Z,56.24
2023-02-17T05:02:00.778Z,56.56
2023-02-17T05:03:00.746Z,55.11
2023-02-17T05:04:00.777Z,56.88
2023-02-17T05:05:00.767Z,57.04
2023-02-17T05:06:00.724Z,56.72
2023-02-17T05:07:00.767Z,56.07
2023-02-17T05:08:00.726Z,55.59
2023-02-17T05:09:00.682Z,56.72
2023-02-17T05:10:00.705Z,56.40
2023-02-17T05:11:00.703Z,59.46
2023-02-17T05:12:00.664Z,57.20
2023-02-17T05:13:00.691Z,59.78
2023-02-17T05:14:00.669Z,58.81
2023-02-17T05:15:00.659Z,54.95
2023-02-17T05:16:00.677Z,56.72
2023-02-17T05:17:00.626Z,57.04
2023-02-17T05:18:00.609Z,56.56
2023-02-17T05:19:01.573Z,57.69
2023-02-17T05:20:00.596Z,57.36
2023-02-17T05:21:00.597Z,58.01
2023-02-17T05:22:00.573Z,58.65
2023-02-17T05:23:00.557Z,58.65
2023-02-17T05:24:00.555Z,59.62
2023-02-17T05:25:00.538Z,59.78
2023-02-17T05:26:00.542Z,59.94
2023-02-17T05:27:00.499Z,60.10
2023-02-17T05:28:00.510Z,59.30
2023-02-17T05:29:00.476Z,59.46
2023-02-17T05:30:00.518Z,60.75
2023-02-17T05:31:00.580Z,58.17
2023-02-17T05:32:00.539Z,58.33
2023-02-17T05:33:00.441Z,59.78
2023-02-17T05:34:00.437Z,59.14
2023-02-17T05:35:00.452Z,60.59
2023-02-17T05:36:00.398Z,60.42
2023-02-17T05:37:00.452Z,61.07
2023-02-17T05:38:00.412Z,60.26
2023-02-17T05:39:00.381Z,60.59
2023-02-17T05:40:00.377Z,59.62
2023-02-17T05:41:00.404Z,59.30
2023-02-17T05:42:00.377Z,59.14
2023-02-17T05:43:00.333Z,59.78
2023-02-17T05:44:00.355Z,59.78
2023-02-17T05:45:00.308Z,59.78
2023-02-17T05:46:00.317Z,59.46
2023-02-17T05:47:00.327Z,59.46
2023-02-17T05:48:00.290Z,59.30
2023-02-17T05:49:00.268Z,58.97
2023-02-17T05:50:00.285Z,59.62
2023-02-17T05:51:00.292Z,59.78
2023-02-17T05:52:00.254Z,58.81
2023-02-17T05:53:00.231Z,58.65
2023-02-17T05:54:00.247Z,58.49
2023-02-17T05:55:00.231Z,58.49
2023-02-17T05:56:00.229Z,57.85
2023-02-17T05:57:00.188Z,59.14
2023-02-17T05:58:00.174Z,59.62
2023-02-17T05:59:00.184Z,59.14
2023-02-17T06:00:00.162Z,60.10
2023-02-17T06:01:00.185Z,58.97
2023-02-17T06:02:00.149Z,57.20
2023-02-17T06:03:00.189Z,57.04
2023-02-17T06:04:01.121Z,59.30
2023-02-17T06:05:00.193Z,60.26
2023-02-17T06:06:00.121Z,58.33
2023-02-17T06:07:00.096Z,57.20
2023-02-17T06:08:00.148Z,59.46
2023-02-17T06:09:00.059Z,59.78
2023-02-17T06:10:00.059Z,61.07
2023-02-17T06:11:00.101Z,58.33
2023-02-17T06:12:00.052Z,60.26
2023-02-17T06:13:00.010Z,59.78
2023-02-17T06:14:00.040Z,60.10
2023-02-17T06:15:00.025Z,59.62
2023-02-17T06:16:00.004Z,58.49
2023-02-17T06:17:01.044Z,60.59
2023-02-17T06:18:01.000Z,59.62
2023-02-17T06:18:59.961Z,60.91
2023-02-17T06:19:59.946Z,59.30
2023-02-17T06:20:59.974Z,58.01
2023-02-17T06:21:59.933Z,59.46
2023-02-17T06:22:59.920Z,60.75
2023-02-17T06:23:59.913Z,59.46
2023-02-17T06:24:59.878Z,61.39
2023-02-17T06:25:59.885Z,60.75
2023-02-17T06:26:59.895Z,60.59
2023-02-17T06:27:59.861Z,60.42
2023-02-17T06:28:59.854Z,61.71
2023-02-17T06:29:59.896Z,60.26
2023-02-17T06:30:59.853Z,61.71
2023-02-17T06:31:59.838Z,61.23
2023-02-17T06:32:59.835Z,59.62
2023-02-17T06:33:59.808Z,60.91
2023-02-17T06:34:59.778Z,60.26
2023-02-17T06:35:59.779Z,60.10
2023-02-17T06:36:59.796Z,61.87
2023-02-17T06:37:59.779Z,62.04
2023-02-17T06:38:59.767Z,60.10
2023-02-17T06:39:59.744Z,59.62
2023-02-17T06:40:59.714Z,60.59
2023-02-17T06:41:59.709Z,59.62
2023-02-17T06:42:59.708Z,58.17
2023-02-17T06:43:59.700Z,59.14
2023-02-17T06:44:59.664Z,58.97
2023-02-17T06:45:59.706Z,61.23
2023-02-17T06:46:59.680Z,59.78
2023-02-17T06:47:59.628Z,60.42
2023-02-17T06:48:59.671Z,60.75
2023-02-17T06:49:59.632Z,59.14
2023-02-17T06:50:59.589Z,59.94
2023-02-17T06:51:59.595Z,60.10
2023-02-17T06:52:59.627Z,61.23
2023-02-17T06:53:59.575Z,61.71
2023-02-17T06:54:59.551Z,60.26
2023-02-17T06:55:59.561Z,56.72
2023-02-17T06:56:59.550Z,60.59
2023-02-17T06:57:59.547Z,58.97
2023-02-17T06:58:59.508Z,59.62
2023-02-17T06:59:59.516Z,60.26
2023-02-17T07:00:59.514Z,60.10
2023-02-17T07:02:02.316Z,63.81
2023-02-17T07:03:00.706Z,58.81
2023-02-17T07:03:59.491Z,61.23
2023-02-17T07:04:59.450Z,58.49
2023-02-17T07:05:59.455Z,59.78
2023-02-17T07:06:59.446Z,59.62
2023-02-17T07:07:59.441Z,61.07
2023-02-17T07:08:59.401Z,61.07
2023-02-17T07:09:59.416Z,58.81
2023-02-17T07:10:59.428Z,58.97
2023-02-17T07:11:59.363Z,57.20
2023-02-17T07:13:00.396Z,55.91
2023-02-17T07:13:59.372Z,58.65
2023-02-17T07:14:59.338Z,60.26
2023-02-17T07:15:59.472Z,57.85
2023-02-17T07:16:59.368Z,59.78
2023-02-17T07:17:59.321Z,59.30
2023-02-17T07:18:59.306Z,58.81
2023-02-17T07:19:59.323Z,57.69
2023-02-17T07:20:59.281Z,61.07
2023-02-17T07:21:59.303Z,59.30
2023-02-17T07:22:59.285Z,58.17
2023-02-17T07:23:59.266Z,58.97
2023-02-17T07:24:59.235Z,59.46
2023-02-17T07:25:59.233Z,58.17
2023-02-17T07:26:59.266Z,57.20
2023-02-17T07:27:59.223Z,59.30
2023-02-17T07:28:59.190Z,58.01
2023-02-17T07:29:59.222Z,56.07
2023-02-17T07:30:59.222Z,58.01
2023-02-17T07:31:59.205Z,59.30
2023-02-17T07:32:59.157Z,57.52
2023-02-17T07:33:59.141Z,55.75
2023-02-17T07:34:59.173Z,56.56
2023-02-17T07:35:59.138Z,55.91
2023-02-17T07:36:59.145Z,57.36
2023-02-17T07:37:59.130Z,57.36
2023-02-17T07:38:59.082Z,57.69
2023-02-17T07:39:59.074Z,57.36
2023-02-17T07:40:59.091Z,59.14
2023-02-17T07:41:59.066Z,59.46
2023-02-17T07:42:59.048Z,60.59
2023-02-17T07:43:59.066Z,57.04
2023-02-17T07:44:59.025Z,57.85
2023-02-17T07:45:59.502Z,59.94
2023-02-17T07:47:00.018Z,58.97
2023-02-17T07:47:59.005Z,59.14
2023-02-17T07:48:58.988Z,58.97
2023-02-17T07:49:58.962Z,59.78
2023-02-17T07:50:58.981Z,59.30
2023-02-17T07:51:58.965Z,58.49
2023-02-17T07:52:58.964Z,57.69
2023-02-17T07:53:59.951Z,58.65
2023-02-17T07:54:58.913Z,58.65
2023-02-17T07:55:58.903Z,61.71
2023-02-17T07:56:58.924Z,60.26
2023-02-17T07:57:58.909Z,57.20
2023-02-17T07:58:58.856Z,59.78
2023-02-17T07:59:58.876Z,57.85
2023-02-17T08:00:58.864Z,58.65
2023-02-17T08:01:58.882Z,58.81
2023-02-17T08:02:58.828Z,59.62
2023-02-17T08:04:31.911Z,58.81
2023-02-17T08:04:58.815Z,58.17
2023-02-17T08:05:58.787Z,60.42
2023-02-17T08:06:58.786Z,58.97
2023-02-17T08:07:58.783Z,58.65
2023-02-17T08:08:58.764Z,58.65
2023-02-17T08:09:58.778Z,58.17
2023-02-17T08:10:58.738Z,58.81
2023-02-17T08:11:58.728Z,58.33
2023-02-17T08:12:58.732Z,56.88
2023-02-17T08:13:58.709Z,58.01
2023-02-17T08:14:58.699Z,57.04
2023-02-17T08:15:58.706Z,56.56
2023-02-17T08:16:58.772Z,59.78
2023-02-17T08:17:58.653Z,58.49
2023-02-17T08:18:58.656Z,58.01
2023-02-17T08:20:01.887Z,56.72
2023-02-17T08:20:59.624Z,59.14
2023-02-17T08:21:58.624Z,55.43
2023-02-17T08:22:58.639Z,58.33
2023-02-17T08:23:58.596Z,57.36
2023-02-17T08:24:58.613Z,58.49
2023-02-17T08:25:58.591Z,58.17
2023-02-17T08:26:58.566Z,55.27
2023-02-17T08:27:58.571Z,57.69
2023-02-17T08:28:58.562Z,57.20
2023-02-17T08:29:58.559Z,58.33
2023-02-17T08:30:58.579Z,57.69
2023-02-17T08:31:58.724Z,58.33
2023-02-17T08:32:58.506Z,58.17
2023-02-17T08:33:59.516Z,57.52
2023-02-17T08:34:58.505Z,58.01
2023-02-17T08:35:58.477Z,59.30
2023-02-17T08:36:58.450Z,58.01
2023-02-17T08:37:58.455Z,55.91
2023-02-17T08:38:58.456Z,59.14
2023-02-17T08:39:58.425Z,57.20
2023-02-17T08:40:58.419Z,57.85
2023-02-17T08:41:58.417Z,58.33
2023-02-17T08:42:58.393Z,56.24
2023-02-17T08:43:58.405Z,57.20
2023-02-17T08:44:58.379Z,58.97
2023-02-17T08:45:58.374Z,59.78
2023-02-17T08:46:58.370Z,58.17
2023-02-17T08:47:58.370Z,58.49
2023-02-17T08:48:58.372Z,57.85
2023-02-17T08:49:58.296Z,56.24
2023-02-17T08:50:58.314Z,56.24
2023-02-17T08:51:58.323Z,56.88
2023-02-17T08:52:58.264Z,58.97
2023-02-17T08:53:58.278Z,59.78
2023-02-17T08:54:58.259Z,57.85
2023-02-17T08:55:58.288Z,59.30
2023-02-17T08:56:58.258Z,57.69
2023-02-17T08:57:58.313Z,58.01
2023-02-17T08:58:58.203Z,57.69
2023-02-17T08:59:58.226Z,55.43
2023-02-17T09:00:58.216Z,57.20
2023-02-17T09:01:58.197Z,57.36
2023-02-17T09:02:58.178Z,57.52
2023-02-17T09:03:58.146Z,57.69
2023-02-17T09:04:58.210Z,57.20
2023-02-17T09:05:58.155Z,58.81
2023-02-17T09:06:58.268Z,58.81
2023-02-17T09:07:58.407Z,57.36
2023-02-17T09:08:58.138Z,58.17
2023-02-17T09:09:58.111Z,57.04
2023-02-17T09:10:58.155Z,58.01
2023-02-17T09:11:58.080Z,57.04
2023-02-17T09:12:58.039Z,57.85
2023-02-17T09:13:58.095Z,56.40
2023-02-17T09:14:58.059Z,59.14
2023-02-17T09:15:58.057Z,59.94
2023-02-17T09:16:58.050Z,55.91
2023-02-17T09:17:58.014Z,58.81
2023-02-17T09:18:58.018Z,58.97
2023-02-17T09:19:58.001Z,58.49
2023-02-17T09:20:58.001Z,58.01
2023-02-17T09:21:57.941Z,58.81
2023-02-17T09:22:57.963Z,57.52
2023-02-17T09:23:57.954Z,58.97
2023-02-17T09:24:57.903Z,58.65
2023-02-17T09:25:57.914Z,58.65
2023-02-17T09:26:57.945Z,59.46
2023-02-17T09:27:59.836Z,60.42
2023-02-17T09:28:58.916Z,61.23
2023-02-17T09:29:57.865Z,61.55
2023-02-17T09:30:57.913Z,58.81
2023-02-17T09:31:57.965Z,57.85
2023-02-17T09:32:57.815Z,56.24
2023-02-17T09:33:57.845Z,56.40
2023-02-17T09:34:57.820Z,59.30
2023-02-17T09:35:57.837Z,59.78
2023-02-17T09:36:57.794Z,57.20
2023-02-17T09:37:57.733Z,57.85
2023-02-17T09:38:57.779Z,57.20
2023-02-17T09:39:57.738Z,59.14
2023-02-17T09:40:57.719Z,59.46
2023-02-17T09:41:57.803Z,59.14
2023-02-17T09:42:57.752Z,57.69
2023-02-17T09:43:57.767Z,57.36
2023-02-17T09:44:57.695Z,56.56
2023-02-17T09:45:57.741Z,58.97
2023-02-17T09:47:02.271Z,56.88
2023-02-17T09:47:58.672Z,57.85
2023-02-17T09:48:57.641Z,56.40
2023-02-17T09:49:57.647Z,53.17
2023-02-17T09:50:57.602Z,58.33
2023-02-17T09:51:57.655Z,59.46
2023-02-17T09:52:57.685Z,61.07
2023-02-17T09:53:57.592Z,57.36
2023-02-17T09:54:57.571Z,57.52
2023-02-17T09:55:57.565Z,55.43
2023-02-17T09:56:57.600Z,57.20
2023-02-17T09:57:57.516Z,57.04
2023-02-17T09:58:57.553Z,57.04
2023-02-17T09:59:57.518Z,56.56
2023-02-17T10:00:57.496Z,59.46
2023-02-17T10:01:57.528Z,58.01
2023-02-17T10:02:57.470Z,62.04
2023-02-17T10:03:57.538Z,59.46
2023-02-17T10:04:57.566Z,60.26
2023-02-17T10:05:57.454Z,60.26
2023-02-17T10:06:57.465Z,58.65
2023-02-17T10:07:57.489Z,58.81
2023-02-17T10:08:57.471Z,59.14
2023-02-17T10:09:57.396Z,59.62
2023-02-17T10:10:57.406Z,58.97
2023-02-17T10:11:57.469Z,60.10
2023-02-17T10:12:57.434Z,58.33
2023-02-17T10:13:57.362Z,59.78
2023-02-17T10:14:57.354Z,59.94
2023-02-17T10:15:57.365Z,58.65
2023-02-17T10:16:57.340Z,56.88
2023-02-17T10:17:57.331Z,59.62
2023-02-17T10:18:57.368Z,59.46
2023-02-17T10:19:57.280Z,64.29
2023-02-17T10:20:57.312Z,59.14
2023-02-17T10:21:57.353Z,57.52
2023-02-17T10:22:57.278Z,59.14
2023-02-17T10:23:57.232Z,59.62
2023-02-17T10:24:57.229Z,58.49
2023-02-17T10:25:57.258Z,60.10
2023-02-17T10:26:57.211Z,60.42
2023-02-17T10:27:57.264Z,59.14
2023-02-17T10:28:57.189Z,57.69
2023-02-17T10:29:57.247Z,59.62
2023-02-17T10:30:57.298Z,59.30
2023-02-17T10:31:57.267Z,59.78
2023-02-17T10:32:57.150Z,60.42
2023-02-17T10:33:57.130Z,59.62
2023-02-17T10:34:57.142Z,58.81
2023-02-17T10:35:57.160Z,59.30
2023-02-17T10:36:57.130Z,60.10
2023-02-17T10:37:57.094Z,59.62
2023-02-17T10:38:57.072Z,59.78
2023-02-17T10:39:57.059Z,57.52
2023-02-17T10:40:57.053Z,60.10
2023-02-17T10:41:57.048Z,60.75
2023-02-17T10:42:57.034Z,59.30
2023-02-17T10:43:56.998Z,59.14
2023-02-17T10:44:57.050Z,58.01
2023-02-17T10:45:56.977Z,57.20
2023-02-17T10:46:56.968Z,59.78
2023-02-17T10:47:56.990Z,61.07
2023-02-17T10:48:56.939Z,62.04
2023-02-17T10:49:56.952Z,59.78
2023-02-17T10:50:56.938Z,59.46
2023-02-17T10:51:56.918Z,58.65
2023-02-17T10:52:56.933Z,59.78
2023-02-17T10:53:56.888Z,58.17
2023-02-17T10:54:56.882Z,60.10
2023-02-17T10:55:56.899Z,61.23
2023-02-17T10:56:56.877Z,60.10
2023-02-17T10:57:56.856Z,59.94
2023-02-17T10:58:56.869Z,58.97
2023-02-17T10:59:56.826Z,59.94
2023-02-17T11:00:56.927Z,59.30
2023-02-17T11:01:56.815Z,59.30
2023-02-17T11:02:56.809Z,61.55
2023-02-17T11:03:56.846Z,60.26
2023-02-17T11:04:56.761Z,60.26
2023-02-17T11:05:56.780Z,60.10
2023-02-17T11:06:56.748Z,61.07
2023-02-17T11:07:56.746Z,59.94
2023-02-17T11:08:57.735Z,59.78
2023-02-17T11:09:56.709Z,60.26
2023-02-17T11:10:56.713Z,60.91
2023-02-17T11:11:56.713Z,60.91
2023-02-17T11:12:56.685Z,61.39
2023-02-17T11:13:56.679Z,58.97
2023-02-17T11:14:56.668Z,58.81
2023-02-17T11:15:56.733Z,60.91
2023-02-17T11:16:56.634Z,59.62
2023-02-17T11:17:56.626Z,60.10
2023-02-17T11:18:56.645Z,60.75
2023-02-17T11:19:56.596Z,58.81
2023-02-17T11:20:56.629Z,59.78
2023-02-17T11:21:56.622Z,62.84
2023-02-17T11:22:56.572Z,62.68
2023-02-17T11:23:56.586Z,59.78
2023-02-17T11:24:56.563Z,60.10
2023-02-17T11:25:56.562Z,61.71
2023-02-17T11:26:56.520Z,60.10
2023-02-17T11:27:56.536Z,59.30
2023-02-17T11:28:56.526Z,58.49
2023-02-17T11:29:56.517Z,61.07
2023-02-17T11:30:56.560Z,60.75
2023-02-17T11:31:56.582Z,59.46
2023-02-17T11:32:56.481Z,59.78
2023-02-17T11:33:57.083Z,58.49
2023-02-17T11:34:57.467Z,60.10
2023-02-17T11:35:56.456Z,59.30
2023-02-17T11:36:56.438Z,57.85
2023-02-17T11:37:56.416Z,58.81
2023-02-17T11:38:56.425Z,61.55
2023-02-17T11:39:56.395Z,60.42
2023-02-17T11:40:56.402Z,59.14
2023-02-17T11:41:56.385Z,59.46
2023-02-17T11:42:56.372Z,59.30
2023-02-17T11:43:56.352Z,58.65
2023-02-17T11:44:56.362Z,57.20
2023-02-17T11:45:56.395Z,58.33
2023-02-17T11:46:56.321Z,60.75
2023-02-17T11:47:56.338Z,59.46
2023-02-17T11:48:56.318Z,58.65
2023-02-17T11:49:56.290Z,58.97
2023-02-17T11:50:56.268Z,59.78
2023-02-17T11:51:56.274Z,56.88
2023-02-17T11:52:56.265Z,59.78
2023-02-17T11:53:56.240Z,60.91
2023-02-17T11:54:56.257Z,58.49
2023-02-17T11:55:56.219Z,59.62
2023-02-17T11:56:56.267Z,59.62
2023-02-17T11:57:56.210Z,61.71
2023-02-17T11:58:56.198Z,61.23
2023-02-17T11:59:56.176Z,60.75
2023-02-17T12:00:56.207Z,60.75
2023-02-17T12:01:56.162Z,60.26
2023-02-17T12:02:56.153Z,61.55
2023-02-17T12:03:56.153Z,60.26
2023-02-17T12:04:56.153Z,60.75
2023-02-17T12:05:56.126Z,60.26
2023-02-17T12:06:56.112Z,61.55
2023-02-17T12:07:56.118Z,60.26
2023-02-17T12:08:56.095Z,59.62
2023-02-17T12:09:56.071Z,60.26
2023-02-17T12:10:56.059Z,63.33
2023-02-17T12:11:56.055Z,61.39
2023-02-17T12:12:56.040Z,61.07
2023-02-17T12:13:56.010Z,60.42
2023-02-17T12:14:56.016Z,61.39
2023-02-17T12:15:56.014Z,61.87
2023-02-17T12:16:56.038Z,61.87
2023-02-17T12:17:56.967Z,61.71
2023-02-17T12:18:55.975Z,62.68
2023-02-17T12:19:55.969Z,59.46
2023-02-17T12:20:55.942Z,61.55
2023-02-17T12:21:55.943Z,62.52
2023-02-17T12:22:55.928Z,65.26
2023-02-17T12:23:55.926Z,60.26
2023-02-17T12:24:55.923Z,62.04
2023-02-17T12:25:55.886Z,61.23
2023-02-17T12:26:55.878Z,64.45
2023-02-17T12:27:55.896Z,62.68
2023-02-17T12:28:55.862Z,62.04
2023-02-17T12:29:55.912Z,58.01
2023-02-17T12:30:56.114Z,62.36
2023-02-17T12:31:55.950Z,59.94
2023-02-17T12:32:55.817Z,60.42
2023-02-17T12:33:55.807Z,61.39
2023-02-17T12:34:55.798Z,59.62
2023-02-17T12:35:55.792Z,61.87
2023-02-17T12:36:55.789Z,62.84
2023-02-17T12:37:55.765Z,61.39
2023-02-17T12:38:55.762Z,60.26
2023-02-17T12:39:55.747Z,60.59
2023-02-17T12:40:55.748Z,60.75
2023-02-17T12:41:55.734Z,61.39
2023-02-17T12:42:55.706Z,59.78
2023-02-17T12:43:55.712Z,60.91
2023-02-17T12:44:55.709Z,61.55
2023-02-17T12:45:55.705Z,63.65
2023-02-17T12:46:55.657Z,62.20
2023-02-17T12:47:55.670Z,59.94
2023-02-17T12:48:55.672Z,59.62
2023-02-17T12:49:55.629Z,60.10
2023-02-17T12:50:55.608Z,63.81
2023-02-17T12:51:55.628Z,61.39